Terminal Aerodrome Forecast
Issued by NWS Shreveport, LA

Home | Current Version | Previous Version | Text Only | Print | Product List | Glossary On
Versions: 1 2 3 4 5 6 7 8 9 10 11 12 13 14
000
FTUS44 KSHV 241700
TAFELD
TAF
KELD 241727Z 2418/2518 29009KT P6SM FEW250
     FM250000 VRB03KT P6SM BKN250
     FM251500 34004KT P6SM BKN250=

USA.gov is the U.S. government's official web portal to all federal, state and local government web resources and services.